createdAt,value
2023-01-20T00:00:11.604Z,3.90
2023-01-20T00:03:54.136Z,3.90
2023-01-20T00:07:36.080Z,3.90
2023-01-20T00:11:18.163Z,3.80
2023-01-20T00:14:59.928Z,3.80
2023-01-20T00:18:41.939Z,3.80
2023-01-20T00:22:23.616Z,3.70
2023-01-20T00:26:09.411Z,3.70
2023-01-20T00:29:51.278Z,3.70
2023-01-20T00:33:32.972Z,3.70
2023-01-20T00:37:14.699Z,3.60
2023-01-20T00:40:56.666Z,3.70
2023-01-20T00:44:38.381Z,3.60
2023-01-20T00:48:20.075Z,3.60
2023-01-20T00:52:01.756Z,3.60
2023-01-20T00:55:43.595Z,3.60
2023-01-20T00:59:25.406Z,3.60
2023-01-20T01:03:07.123Z,3.60
2023-01-20T01:06:50.287Z,3.60
2023-01-20T01:10:32.331Z,3.60
2023-01-20T01:14:14.167Z,3.60
2023-01-20T01:17:56.370Z,3.60
2023-01-20T01:21:38.309Z,3.60
2023-01-20T01:25:20.114Z,3.60
2023-01-20T01:29:02.059Z,3.60
2023-01-20T01:32:43.749Z,3.60
2023-01-20T01:36:25.477Z,3.60
2023-01-20T01:40:08.424Z,3.60
2023-01-20T01:44:05.472Z,3.60
2023-01-20T01:48:00.286Z,3.60
2023-01-20T01:51:54.378Z,3.60
2023-01-20T01:55:37.717Z,3.60
2023-01-20T01:59:20.096Z,3.60
2023-01-20T02:03:01.769Z,3.60
2023-01-20T02:07:16.970Z,3.60
2023-01-20T02:10:58.633Z,3.50
2023-01-20T02:14:42.422Z,3.50
2023-01-20T02:18:34.373Z,3.50
2023-01-20T02:22:36.998Z,3.50
2023-01-20T02:26:42.879Z,3.50
2023-01-20T02:30:52.773Z,3.40
2023-01-20T02:34:59.231Z,3.40
2023-01-20T02:38:52.924Z,3.40
2023-01-20T02:42:42.637Z,3.40
2023-01-20T02:46:33.454Z,3.40
2023-01-20T02:50:22.033Z,3.40
2023-01-20T02:54:06.004Z,3.40
2023-01-20T02:57:48.981Z,3.40
2023-01-20T03:01:36.387Z,3.30
2023-01-20T03:05:23.352Z,3.30
2023-01-20T03:09:10.351Z,3.30
2023-01-20T03:13:25.185Z,3.20
2023-01-20T03:17:06.911Z,3.20
2023-01-20T03:20:48.763Z,3.30
2023-01-20T03:24:30.487Z,3.20
2023-01-20T03:28:12.155Z,3.20
2023-01-20T03:31:59.222Z,3.20
2023-01-20T03:35:40.932Z,3.10
2023-01-20T03:39:22.735Z,3.10
2023-01-20T03:43:28.551Z,3.10
2023-01-20T03:47:16.451Z,3.00
2023-01-20T03:51:33.457Z,2.90
2023-01-20T03:55:22.554Z,2.90
2023-01-20T03:59:04.939Z,2.90
2023-01-20T04:02:46.605Z,2.80
2023-01-20T04:06:28.332Z,2.80
2023-01-20T04:10:11.788Z,2.80
2023-01-20T04:13:53.771Z,2.70
2023-01-20T04:17:35.459Z,2.70
2023-01-20T04:21:35.180Z,2.70
2023-01-20T04:25:26.192Z,2.70
2023-01-20T04:29:13.091Z,2.70
2023-01-20T04:32:54.954Z,2.70
2023-01-20T04:36:36.624Z,2.70
2023-01-20T04:40:18.523Z,2.60
2023-01-20T04:44:00.192Z,2.60
2023-01-20T04:47:42.049Z,2.60
2023-01-20T04:51:23.850Z,2.60
2023-01-20T04:55:05.970Z,2.60
2023-01-20T04:58:47.824Z,2.60
2023-01-20T05:02:29.553Z,2.60
2023-01-20T05:06:11.366Z,2.60
2023-01-20T05:09:53.129Z,2.60
2023-01-20T05:13:39.087Z,2.60
2023-01-20T05:17:20.817Z,2.60
2023-01-20T05:21:03.994Z,2.60
2023-01-20T05:24:45.702Z,2.60
2023-01-20T05:28:27.440Z,2.60
2023-01-20T05:32:10.517Z,2.60
2023-01-20T05:35:53.776Z,2.60
2023-01-20T05:39:37.105Z,2.60
2023-01-20T05:43:18.792Z,2.60
2023-01-20T05:47:00.463Z,2.60
2023-01-20T05:50:43.136Z,2.60
2023-01-20T05:54:26.197Z,2.60
2023-01-20T05:58:08.080Z,2.60
2023-01-20T06:01:50.984Z,2.60
2023-01-20T06:05:33.170Z,2.60
2023-01-20T06:09:15.410Z,2.60
2023-01-20T06:12:57.233Z,2.50
2023-01-20T06:16:38.916Z,2.60
2023-01-20T06:20:20.877Z,2.60
2023-01-20T06:24:02.564Z,2.60
2023-01-20T06:27:44.306Z,2.60
2023-01-20T06:31:28.550Z,2.60
2023-01-20T06:35:11.387Z,2.60
2023-01-20T06:38:53.320Z,2.60
2023-01-20T06:42:35.031Z,2.60
2023-01-20T06:46:16.860Z,2.60
2023-01-20T06:49:58.713Z,2.60
2023-01-20T06:53:40.508Z,2.70
2023-01-20T06:57:22.249Z,2.60
2023-01-20T07:01:11.422Z,2.60
2023-01-20T07:04:53.410Z,2.60
2023-01-20T07:08:35.070Z,2.60
2023-01-20T07:12:16.796Z,2.50
2023-01-20T07:15:58.526Z,2.50
2023-01-20T07:19:40.435Z,2.50
2023-01-20T07:23:22.693Z,2.50
2023-01-20T07:27:04.823Z,2.50
2023-01-20T07:30:46.735Z,2.40
2023-01-20T07:34:28.428Z,2.50
2023-01-20T07:38:10.151Z,2.50
2023-01-20T07:41:51.931Z,2.50
2023-01-20T07:45:33.621Z,2.50
2023-01-20T07:49:15.513Z,2.50
2023-01-20T07:52:57.265Z,2.60
2023-01-20T07:56:39.450Z,2.60
2023-01-20T08:00:21.486Z,2.60
2023-01-20T08:04:03.287Z,2.70
2023-01-20T08:07:44.994Z,2.70
2023-01-20T08:11:26.679Z,2.80
2023-01-20T08:15:09.164Z,2.90
2023-01-20T08:18:53.418Z,3.00
2023-01-20T08:22:35.223Z,3.00
2023-01-20T08:26:17.052Z,3.10
2023-01-20T08:29:59.082Z,3.20
2023-01-20T08:33:42.468Z,3.30
2023-01-20T08:37:24.371Z,3.40
2023-01-20T08:41:13.688Z,3.40
2023-01-20T08:44:55.406Z,3.50
2023-01-20T08:48:37.591Z,3.60
2023-01-20T08:52:19.332Z,3.70
2023-01-20T08:56:01.720Z,3.80
2023-01-20T08:59:44.203Z,3.90
2023-01-20T09:03:26.138Z,4.10
2023-01-20T09:07:08.161Z,4.20
2023-01-20T09:10:49.978Z,4.30
2023-01-20T09:14:31.646Z,4.40
2023-01-20T09:18:13.323Z,4.50
2023-01-20T09:21:55.301Z,4.60
2023-01-20T09:25:36.974Z,4.70
2023-01-20T09:29:19.750Z,4.90
2023-01-20T09:33:01.445Z,5.00
2023-01-20T09:36:43.165Z,5.00
2023-01-20T09:40:46.755Z,5.20
2023-01-20T09:44:54.226Z,5.20
2023-01-20T09:49:02.402Z,5.30
2023-01-20T09:53:05.335Z,5.40
2023-01-20T09:56:47.582Z,5.60
2023-01-20T10:00:29.875Z,5.60
2023-01-20T10:04:14.310Z,5.70
2023-01-20T10:08:04.798Z,5.80
2023-01-20T10:11:47.098Z,5.90
2023-01-20T10:15:35.238Z,6.10
2023-01-20T10:19:29.074Z,6.10
2023-01-20T10:23:21.659Z,6.20
2023-01-20T10:27:04.078Z,6.30
2023-01-20T10:30:47.288Z,6.40
2023-01-20T10:34:40.790Z,6.40
2023-01-20T10:38:54.979Z,6.60
2023-01-20T10:42:36.661Z,6.70
2023-01-20T10:46:36.829Z,6.80
2023-01-20T10:50:42.539Z,6.80
2023-01-20T10:54:27.075Z,6.90
2023-01-20T10:58:20.084Z,7.00
2023-01-20T11:02:29.558Z,7.00
2023-01-20T11:06:20.331Z,7.10
2023-01-20T11:10:32.530Z,7.20
2023-01-20T11:14:14.349Z,7.20
2023-01-20T11:18:14.345Z,7.30
2023-01-20T11:21:56.260Z,7.40
2023-01-20T11:25:37.923Z,7.40
2023-01-20T11:29:19.807Z,7.50
2023-01-20T11:33:17.708Z,7.60
2023-01-20T11:37:05.461Z,7.70
2023-01-20T11:40:55.066Z,7.70
2023-01-20T11:44:47.124Z,7.80
2023-01-20T11:48:28.808Z,7.80
2023-01-20T11:52:20.137Z,7.90
2023-01-20T11:56:14.676Z,8.00
2023-01-20T11:59:56.606Z,8.20
2023-01-20T12:03:47.732Z,8.50
2023-01-20T12:07:31.807Z,8.60
2023-01-20T12:11:14.868Z,8.70
2023-01-20T12:15:03.751Z,8.70
2023-01-20T12:19:01.958Z,8.80
2023-01-20T12:23:06.266Z,8.80
2023-01-20T12:26:47.956Z,8.80
2023-01-20T12:30:56.785Z,8.80
2023-01-20T12:34:38.782Z,8.80
2023-01-20T12:38:20.857Z,8.90
2023-01-20T12:42:27.596Z,9.00
2023-01-20T12:46:43.533Z,9.10
2023-01-20T12:51:00.676Z,9.10
2023-01-20T12:55:06.972Z,9.10
2023-01-20T12:58:56.542Z,9.20
2023-01-20T13:02:57.345Z,9.20
2023-01-20T13:07:01.178Z,9.30
2023-01-20T13:11:23.982Z,9.30
2023-01-20T13:15:17.131Z,9.40
2023-01-20T13:19:12.892Z,9.40
2023-01-20T13:22:55.230Z,9.40
2023-01-20T13:26:36.979Z,9.50
2023-01-20T13:30:42.870Z,9.60
2023-01-20T13:34:24.848Z,9.60
2023-01-20T13:38:20.513Z,9.60
2023-01-20T13:42:02.271Z,9.70
2023-01-20T13:45:44.191Z,9.70
2023-01-20T13:49:29.002Z,9.70
2023-01-20T13:53:10.790Z,9.80
2023-01-20T13:56:52.508Z,9.80
2023-01-20T14:00:34.329Z,9.80
2023-01-20T14:04:17.339Z,9.80
2023-01-20T14:07:59.295Z,9.80
2023-01-20T14:11:52.179Z,9.80
2023-01-20T14:15:35.878Z,9.80
2023-01-20T14:19:29.869Z,9.90
2023-01-20T14:23:25.197Z,9.90
2023-01-20T14:27:16.690Z,9.90
2023-01-20T14:31:19.308Z,9.90
2023-01-20T14:35:01.474Z,9.90
2023-01-20T14:38:56.454Z,9.90
2023-01-20T14:42:39.863Z,9.90
2023-01-20T14:46:22.142Z,10.00
2023-01-20T14:50:04.292Z,10.00
2023-01-20T14:53:46.833Z,10.00
2023-01-20T14:57:40.722Z,10.00
2023-01-20T15:01:23.927Z,10.00
2023-01-20T15:05:27.743Z,10.00
2023-01-20T15:09:32.928Z,10.00
2023-01-20T15:13:25.317Z,10.00
2023-01-20T15:17:08.793Z,10.00
2023-01-20T15:21:15.540Z,10.00
2023-01-20T15:25:03.223Z,10.00
2023-01-20T15:28:45.022Z,10.00
2023-01-20T15:32:26.706Z,9.90
2023-01-20T15:36:20.245Z,9.90
2023-01-20T15:40:02.099Z,9.90
2023-01-20T15:43:45.529Z,9.80
2023-01-20T15:47:30.837Z,9.90
2023-01-20T15:51:17.788Z,9.90
2023-01-20T15:54:59.523Z,9.80
2023-01-20T15:58:41.235Z,9.80
2023-01-20T16:02:23.609Z,9.80
2023-01-20T16:06:10.183Z,9.80
2023-01-20T16:09:52.200Z,9.90
2023-01-20T16:13:34.033Z,10.00
2023-01-20T16:17:21.212Z,10.20
2023-01-20T16:21:04.652Z,10.30
2023-01-20T16:24:48.982Z,10.20
2023-01-20T16:28:30.723Z,10.00
2023-01-20T16:32:12.865Z,9.90
2023-01-20T16:35:55.812Z,9.70
2023-01-20T16:39:37.659Z,9.60
2023-01-20T16:43:20.301Z,9.40
2023-01-20T16:47:02.031Z,9.30
2023-01-20T16:50:43.936Z,9.20
2023-01-20T16:54:25.733Z,9.10
2023-01-20T16:58:08.569Z,9.00
2023-01-20T17:01:50.545Z,9.00
2023-01-20T17:05:32.405Z,8.90
2023-01-20T17:09:14.386Z,8.80
2023-01-20T17:12:56.216Z,8.70
2023-01-20T17:16:38.248Z,8.70
2023-01-20T17:20:20.367Z,8.60
2023-01-20T17:24:03.402Z,8.60
2023-01-20T17:27:45.193Z,8.50
2023-01-20T17:31:28.172Z,8.40
2023-01-20T17:35:10.431Z,8.40
2023-01-20T17:38:52.259Z,8.30
2023-01-20T17:42:34.477Z,8.30
2023-01-20T17:46:27.630Z,8.20
2023-01-20T17:50:10.215Z,8.20
2023-01-20T17:53:52.050Z,8.10
2023-01-20T17:57:33.764Z,8.10
2023-01-20T18:01:20.239Z,8.00
2023-01-20T18:05:02.026Z,7.90
2023-01-20T18:08:44.328Z,7.70
2023-01-20T18:12:26.273Z,7.60
2023-01-20T18:16:10.834Z,7.50
2023-01-20T18:19:52.595Z,7.40
2023-01-20T18:23:34.281Z,7.30
2023-01-20T18:27:18.675Z,7.20
2023-01-20T18:31:10.587Z,7.20
2023-01-20T18:34:52.388Z,7.10
2023-01-20T18:38:34.230Z,7.00
2023-01-20T18:42:16.051Z,6.90
2023-01-20T18:45:57.792Z,6.80
2023-01-20T18:49:39.598Z,6.80
2023-01-20T18:53:21.306Z,6.70
2023-01-20T18:57:03.684Z,6.60
2023-01-20T19:00:45.623Z,6.60
2023-01-20T19:04:27.409Z,6.50
2023-01-20T19:08:09.073Z,6.40
2023-01-20T19:11:51.046Z,6.40
2023-01-20T19:15:36.823Z,6.40
2023-01-20T19:19:19.203Z,6.30
2023-01-20T19:23:01.010Z,6.30
2023-01-20T19:26:42.696Z,6.30
2023-01-20T19:30:24.727Z,6.30
2023-01-20T19:34:06.925Z,6.30
2023-01-20T19:37:48.691Z,6.30
2023-01-20T19:41:35.997Z,6.30
2023-01-20T19:45:17.999Z,6.30
2023-01-20T19:49:00.252Z,6.30
2023-01-20T19:52:41.928Z,6.30
2023-01-20T19:56:24.115Z,6.30
2023-01-20T20:00:06.640Z,6.20
2023-01-20T20:03:48.795Z,6.30
2023-01-20T20:07:30.454Z,6.20
2023-01-20T20:11:12.466Z,6.20
2023-01-20T20:14:55.371Z,6.20
2023-01-20T20:18:37.068Z,6.20
2023-01-20T20:22:18.899Z,6.20
2023-01-20T20:26:00.626Z,6.10
2023-01-20T20:29:42.405Z,6.10
2023-01-20T20:33:24.473Z,6.10
2023-01-20T20:37:06.155Z,6.00
2023-01-20T20:40:48.062Z,6.00
2023-01-20T20:44:29.790Z,5.90
2023-01-20T20:48:11.556Z,5.90
2023-01-20T20:51:53.238Z,5.80
2023-01-20T20:55:39.910Z,5.80
2023-01-20T20:59:24.616Z,5.70
2023-01-20T21:03:11.022Z,5.70
2023-01-20T21:06:52.754Z,5.70
2023-01-20T21:10:34.769Z,5.60
2023-01-20T21:14:18.554Z,5.70
2023-01-20T21:18:01.126Z,5.70
2023-01-20T21:21:42.962Z,5.70
2023-01-20T21:25:24.950Z,5.70
2023-01-20T21:29:06.864Z,5.70
2023-01-20T21:32:48.566Z,5.80
2023-01-20T21:36:31.358Z,5.80
2023-01-20T21:40:13.406Z,5.70
2023-01-20T21:44:13.650Z,5.70
2023-01-20T21:48:16.175Z,5.60
2023-01-20T21:52:16.374Z,5.50
2023-01-20T21:55:58.307Z,5.40
2023-01-20T21:59:40.268Z,5.30
2023-01-20T22:03:21.954Z,5.20
2023-01-20T22:07:03.783Z,5.20
2023-01-20T22:10:45.683Z,5.10
2023-01-20T22:14:27.411Z,5.00
2023-01-20T22:18:09.432Z,5.00
2023-01-20T22:21:52.322Z,5.00
2023-01-20T22:25:35.103Z,5.00
2023-01-20T22:29:17.256Z,4.90
2023-01-20T22:32:58.937Z,4.90
2023-01-20T22:36:40.743Z,4.90
2023-01-20T22:40:22.586Z,4.80
2023-01-20T22:44:04.259Z,4.80
2023-01-20T22:47:46.131Z,4.80
2023-01-20T22:51:28.737Z,4.80
2023-01-20T22:55:10.494Z,4.80
2023-01-20T22:58:53.463Z,4.80
2023-01-20T23:02:37.028Z,4.80
2023-01-20T23:06:19.330Z,4.80
2023-01-20T23:10:01.379Z,4.80
2023-01-20T23:13:43.141Z,4.80
2023-01-20T23:17:28.483Z,4.80
2023-01-20T23:21:10.478Z,4.80
2023-01-20T23:24:52.205Z,4.80
2023-01-20T23:28:34.289Z,4.80
2023-01-20T23:32:16.291Z,4.70
2023-01-20T23:36:08.927Z,4.70
2023-01-20T23:39:53.053Z,4.60
2023-01-20T23:43:34.852Z,4.60
2023-01-20T23:47:16.746Z,4.60
2023-01-20T23:51:20.351Z,4.50
2023-01-20T23:55:02.179Z,4.50
2023-01-20T23:58:44.187Z,4.50
